sensor_id;sensor_type;location;lat;lon;timestamp;temperature;humidity
75931;DHT22;64609;47.052;15.462;2023-05-13T00:01:14;15.50;74.10
75931;DHT22;64609;47.052;15.462;2023-05-13T00:03:39;15.50;74.20
75931;DHT22;64609;47.052;15.462;2023-05-13T00:06:05;15.60;74.10
75931;DHT22;64609;47.052;15.462;2023-05-13T00:08:31;15.50;74.00
75931;DHT22;64609;47.052;15.462;2023-05-13T00:10:56;15.60;73.80
75931;DHT22;64609;47.052;15.462;2023-05-13T00:13:22;15.60;73.60
75931;DHT22;64609;47.052;15.462;2023-05-13T00:15:48;15.60;73.80
75931;DHT22;64609;47.052;15.462;2023-05-13T00:18:13;15.60;73.90
75931;DHT22;64609;47.052;15.462;2023-05-13T00:20:39;15.60;74.00
75931;DHT22;64609;47.052;15.462;2023-05-13T00:23:05;15.50;74.10
75931;DHT22;64609;47.052;15.462;2023-05-13T00:25:32;15.50;74.30
75931;DHT22;64609;47.052;15.462;2023-05-13T00:27:58;15.50;74.40
75931;DHT22;64609;47.052;15.462;2023-05-13T00:30:23;15.50;74.30
75931;DHT22;64609;47.052;15.462;2023-05-13T00:32:49;15.50;74.40
75931;DHT22;64609;47.052;15.462;2023-05-13T00:35:15;15.50;74.60
75931;DHT22;64609;47.052;15.462;2023-05-13T00:37:40;15.50;74.70
75931;DHT22;64609;47.052;15.462;2023-05-13T00:40:23;15.50;74.60
75931;DHT22;64609;47.052;15.462;2023-05-13T00:42:50;15.50;74.70
75931;DHT22;64609;47.052;15.462;2023-05-13T00:45:16;15.50;74.60
75931;DHT22;64609;47.052;15.462;2023-05-13T00:47:42;15.50;74.50
75931;DHT22;64609;47.052;15.462;2023-05-13T00:50:09;15.50;74.40
75931;DHT22;64609;47.052;15.462;2023-05-13T00:52:37;15.50;74.50
75931;DHT22;64609;47.052;15.462;2023-05-13T00:55:04;15.50;74.40
75931;DHT22;64609;47.052;15.462;2023-05-13T00:57:30;15.50;74.50
75931;DHT22;64609;47.052;15.462;2023-05-13T00:59:56;15.50;74.40
75931;DHT22;64609;47.052;15.462;2023-05-13T01:02:29;15.50;74.40
75931;DHT22;64609;47.052;15.462;2023-05-13T01:05:08;15.50;74.60
75931;DHT22;64609;47.052;15.462;2023-05-13T01:11:00;15.50;74.90
75931;DHT22;64609;47.052;15.462;2023-05-13T01:13:20;15.50;74.90
75931;DHT22;64609;47.052;15.462;2023-05-13T01:16:04;15.40;74.70
75931;DHT22;64609;47.052;15.462;2023-05-13T01:18:38;15.40;74.90
75931;DHT22;64609;47.052;15.462;2023-05-13T01:21:05;15.40;74.80
75931;DHT22;64609;47.052;15.462;2023-05-13T01:23:31;15.40;74.80
75931;DHT22;64609;47.052;15.462;2023-05-13T01:25:56;15.50;75.10
75931;DHT22;64609;47.052;15.462;2023-05-13T01:28:22;15.40;75.10
75931;DHT22;64609;47.052;15.462;2023-05-13T01:30:48;15.50;75.00
75931;DHT22;64609;47.052;15.462;2023-05-13T01:33:16;15.40;74.90
75931;DHT22;64609;47.052;15.462;2023-05-13T01:35:43;15.40;75.10
75931;DHT22;64609;47.052;15.462;2023-05-13T01:38:10;15.40;75.10
75931;DHT22;64609;47.052;15.462;2023-05-13T01:40:37;15.40;75.10
75931;DHT22;64609;47.052;15.462;2023-05-13T01:43:02;15.50;75.10
75931;DHT22;64609;47.052;15.462;2023-05-13T01:45:28;15.50;75.10
75931;DHT22;64609;47.052;15.462;2023-05-13T01:47:54;15.40;75.30
75931;DHT22;64609;47.052;15.462;2023-05-13T01:50:20;15.50;75.30
75931;DHT22;64609;47.052;15.462;2023-05-13T01:52:46;15.40;75.20
75931;DHT22;64609;47.052;15.462;2023-05-13T01:55:12;15.50;75.30
75931;DHT22;64609;47.052;15.462;2023-05-13T01:57:37;15.50;75.20
75931;DHT22;64609;47.052;15.462;2023-05-13T02:00:03;15.40;75.20
75931;DHT22;64609;47.052;15.462;2023-05-13T02:02:30;15.50;75.30
75931;DHT22;64609;47.052;15.462;2023-05-13T02:04:56;15.50;75.50
75931;DHT22;64609;47.052;15.462;2023-05-13T02:07:21;15.50;75.50
75931;DHT22;64609;47.052;15.462;2023-05-13T02:09:47;15.50;75.40
75931;DHT22;64609;47.052;15.462;2023-05-13T02:12:13;15.40;75.50
75931;DHT22;64609;47.052;15.462;2023-05-13T02:14:38;15.40;75.60
75931;DHT22;64609;47.052;15.462;2023-05-13T02:17:04;15.40;75.60
75931;DHT22;64609;47.052;15.462;2023-05-13T02:19:29;15.40;75.60
75931;DHT22;64609;47.052;15.462;2023-05-13T02:21:55;15.50;75.60
75931;DHT22;64609;47.052;15.462;2023-05-13T02:24:21;15.50;75.70
75931;DHT22;64609;47.052;15.462;2023-05-13T02:26:46;15.50;76.10
75931;DHT22;64609;47.052;15.462;2023-05-13T02:29:13;15.50;75.80
75931;DHT22;64609;47.052;15.462;2023-05-13T02:31:38;15.50;75.60
75931;DHT22;64609;47.052;15.462;2023-05-13T02:34:05;15.50;75.60
75931;DHT22;64609;47.052;15.462;2023-05-13T02:36:31;15.40;75.50
75931;DHT22;64609;47.052;15.462;2023-05-13T02:38:56;15.40;75.10
75931;DHT22;64609;47.052;15.462;2023-05-13T02:41:22;15.30;75.00
75931;DHT22;64609;47.052;15.462;2023-05-13T02:43:48;15.30;75.30
75931;DHT22;64609;47.052;15.462;2023-05-13T02:46:13;15.30;76.40
75931;DHT22;64609;47.052;15.462;2023-05-13T02:48:39;15.40;75.50
75931;DHT22;64609;47.052;15.462;2023-05-13T02:51:04;15.40;75.50
75931;DHT22;64609;47.052;15.462;2023-05-13T02:53:30;15.40;75.40
75931;DHT22;64609;47.052;15.462;2023-05-13T02:55:56;15.40;75.40
75931;DHT22;64609;47.052;15.462;2023-05-13T02:58:21;15.40;75.20
75931;DHT22;64609;47.052;15.462;2023-05-13T03:00:47;15.40;75.30
75931;DHT22;64609;47.052;15.462;2023-05-13T03:03:13;15.40;75.30
75931;DHT22;64609;47.052;15.462;2023-05-13T03:05:38;15.40;75.30
75931;DHT22;64609;47.052;15.462;2023-05-13T03:08:04;15.40;75.30
75931;DHT22;64609;47.052;15.462;2023-05-13T03:10:30;15.40;75.50
75931;DHT22;64609;47.052;15.462;2023-05-13T03:12:55;15.40;75.40
75931;DHT22;64609;47.052;15.462;2023-05-13T03:15:21;15.40;75.40
75931;DHT22;64609;47.052;15.462;2023-05-13T03:17:47;15.40;75.30
75931;DHT22;64609;47.052;15.462;2023-05-13T03:20:13;15.40;75.40
75931;DHT22;64609;47.052;15.462;2023-05-13T03:22:38;15.40;75.50
75931;DHT22;64609;47.052;15.462;2023-05-13T03:25:05;15.40;75.60
75931;DHT22;64609;47.052;15.462;2023-05-13T03:27:31;15.40;75.50
75931;DHT22;64609;47.052;15.462;2023-05-13T03:29:56;15.40;75.60
75931;DHT22;64609;47.052;15.462;2023-05-13T03:32:22;15.40;75.70
75931;DHT22;64609;47.052;15.462;2023-05-13T03:34:49;15.40;75.70
75931;DHT22;64609;47.052;15.462;2023-05-13T03:37:16;15.40;75.70
75931;DHT22;64609;47.052;15.462;2023-05-13T03:39:41;15.40;75.50
75931;DHT22;64609;47.052;15.462;2023-05-13T03:42:07;15.40;75.60
75931;DHT22;64609;47.052;15.462;2023-05-13T03:44:33;15.40;75.70
75931;DHT22;64609;47.052;15.462;2023-05-13T03:46:59;15.40;75.90
75931;DHT22;64609;47.052;15.462;2023-05-13T03:49:25;15.40;75.90
75931;DHT22;64609;47.052;15.462;2023-05-13T03:51:50;15.40;75.80
75931;DHT22;64609;47.052;15.462;2023-05-13T03:54:16;15.40;75.70
75931;DHT22;64609;47.052;15.462;2023-05-13T03:56:42;15.40;75.60
75931;DHT22;64609;47.052;15.462;2023-05-13T03:59:07;15.40;75.70
75931;DHT22;64609;47.052;15.462;2023-05-13T04:01:34;15.40;75.80
75931;DHT22;64609;47.052;15.462;2023-05-13T04:04:00;15.40;75.70
75931;DHT22;64609;47.052;15.462;2023-05-13T04:06:25;15.40;75.80
75931;DHT22;64609;47.052;15.462;2023-05-13T04:08:51;15.50;75.80
75931;DHT22;64609;47.052;15.462;2023-05-13T04:11:17;15.40;75.80
75931;DHT22;64609;47.052;15.462;2023-05-13T04:13:42;15.40;75.90
75931;DHT22;64609;47.052;15.462;2023-05-13T04:16:10;15.40;75.70
75931;DHT22;64609;47.052;15.462;2023-05-13T04:18:36;15.50;75.90
75931;DHT22;64609;47.052;15.462;2023-05-13T04:21:08;15.50;75.80
75931;DHT22;64609;47.052;15.462;2023-05-13T04:23:34;15.50;76.00
75931;DHT22;64609;47.052;15.462;2023-05-13T04:26:00;15.50;76.00
75931;DHT22;64609;47.052;15.462;2023-05-13T04:28:26;15.50;75.80
75931;DHT22;64609;47.052;15.462;2023-05-13T04:30:51;15.50;75.90
75931;DHT22;64609;47.052;15.462;2023-05-13T04:33:17;15.50;75.70
75931;DHT22;64609;47.052;15.462;2023-05-13T04:35:43;15.50;75.50
75931;DHT22;64609;47.052;15.462;2023-05-13T04:38:08;15.50;75.80
75931;DHT22;64609;47.052;15.462;2023-05-13T04:40:34;15.50;76.00
75931;DHT22;64609;47.052;15.462;2023-05-13T04:43:00;15.50;75.90
75931;DHT22;64609;47.052;15.462;2023-05-13T04:45:25;15.50;75.80
75931;DHT22;64609;47.052;15.462;2023-05-13T04:47:51;15.50;75.60
75931;DHT22;64609;47.052;15.462;2023-05-13T04:50:17;15.60;75.70
75931;DHT22;64609;47.052;15.462;2023-05-13T04:52:42;15.60;75.60
75931;DHT22;64609;47.052;15.462;2023-05-13T04:55:09;15.60;75.60
75931;DHT22;64609;47.052;15.462;2023-05-13T04:57:34;15.60;75.60
75931;DHT22;64609;47.052;15.462;2023-05-13T05:00:01;15.60;75.60
75931;DHT22;64609;47.052;15.462;2023-05-13T05:02:27;15.60;75.70
75931;DHT22;64609;47.052;15.462;2023-05-13T05:04:54;15.70;75.50
75931;DHT22;64609;47.052;15.462;2023-05-13T05:07:20;15.70;75.40
75931;DHT22;64609;47.052;15.462;2023-05-13T05:09:46;15.60;75.20
75931;DHT22;64609;47.052;15.462;2023-05-13T05:12:11;15.60;75.10
75931;DHT22;64609;47.052;15.462;2023-05-13T05:14:37;15.60;75.20
75931;DHT22;64609;47.052;15.462;2023-05-13T05:17:03;15.60;75.20
75931;DHT22;64609;47.052;15.462;2023-05-13T05:19:28;15.60;74.90
75931;DHT22;64609;47.052;15.462;2023-05-13T05:21:54;15.60;74.70
75931;DHT22;64609;47.052;15.462;2023-05-13T05:24:20;15.50;74.90
75931;DHT22;64609;47.052;15.462;2023-05-13T05:26:45;15.50;75.20
75931;DHT22;64609;47.052;15.462;2023-05-13T05:29:11;15.50;75.10
75931;DHT22;64609;47.052;15.462;2023-05-13T05:31:37;15.50;75.10
75931;DHT22;64609;47.052;15.462;2023-05-13T05:34:02;15.50;75.40
75931;DHT22;64609;47.052;15.462;2023-05-13T05:36:28;15.60;75.60
75931;DHT22;64609;47.052;15.462;2023-05-13T05:38:54;15.60;74.90
75931;DHT22;64609;47.052;15.462;2023-05-13T05:41:20;15.50;75.40
75931;DHT22;64609;47.052;15.462;2023-05-13T05:43:46;15.50;75.20
75931;DHT22;64609;47.052;15.462;2023-05-13T05:46:12;15.50;74.90
75931;DHT22;64609;47.052;15.462;2023-05-13T05:48:38;15.50;75.00
75931;DHT22;64609;47.052;15.462;2023-05-13T05:51:04;15.40;74.60
75931;DHT22;64609;47.052;15.462;2023-05-13T05:53:30;15.40;75.00
75931;DHT22;64609;47.052;15.462;2023-05-13T05:55:56;15.30;74.90
75931;DHT22;64609;47.052;15.462;2023-05-13T05:58:22;15.30;75.40
75931;DHT22;64609;47.052;15.462;2023-05-13T06:00:47;15.40;75.60
75931;DHT22;64609;47.052;15.462;2023-05-13T06:03:13;15.40;75.40
75931;DHT22;64609;47.052;15.462;2023-05-13T06:05:39;15.50;75.30
75931;DHT22;64609;47.052;15.462;2023-05-13T06:08:04;15.50;75.30
75931;DHT22;64609;47.052;15.462;2023-05-13T06:10:30;15.50;75.20
75931;DHT22;64609;47.052;15.462;2023-05-13T06:12:56;15.60;75.20
75931;DHT22;64609;47.052;15.462;2023-05-13T06:15:21;15.60;75.10
75931;DHT22;64609;47.052;15.462;2023-05-13T06:17:47;15.60;74.90
75931;DHT22;64609;47.052;15.462;2023-05-13T06:20:13;15.50;74.40
75931;DHT22;64609;47.052;15.462;2023-05-13T06:22:39;15.50;74.90
75931;DHT22;64609;47.052;15.462;2023-05-13T06:25:06;15.60;74.90
75931;DHT22;64609;47.052;15.462;2023-05-13T06:27:31;15.60;75.10
75931;DHT22;64609;47.052;15.462;2023-05-13T06:29:59;15.60;74.50
75931;DHT22;64609;47.052;15.462;2023-05-13T06:32:24;15.50;74.40
75931;DHT22;64609;47.052;15.462;2023-05-13T06:34:50;15.50;74.60
75931;DHT22;64609;47.052;15.462;2023-05-13T06:37:17;15.50;74.60
75931;DHT22;64609;47.052;15.462;2023-05-13T06:39:42;15.60;74.70
75931;DHT22;64609;47.052;15.462;2023-05-13T06:42:08;15.60;74.30
75931;DHT22;64609;47.052;15.462;2023-05-13T06:44:34;15.60;74.40
75931;DHT22;64609;47.052;15.462;2023-05-13T06:46:59;15.60;74.40
75931;DHT22;64609;47.052;15.462;2023-05-13T06:49:27;15.60;74.30
75931;DHT22;64609;47.052;15.462;2023-05-13T06:51:52;15.60;74.10
75931;DHT22;64609;47.052;15.462;2023-05-13T06:54:18;15.70;74.00
75931;DHT22;64609;47.052;15.462;2023-05-13T06:56:44;15.70;74.00
75931;DHT22;64609;47.052;15.462;2023-05-13T06:59:09;15.70;74.40
75931;DHT22;64609;47.052;15.462;2023-05-13T07:01:36;15.70;74.50
75931;DHT22;64609;47.052;15.462;2023-05-13T07:04:02;15.80;74.80
75931;DHT22;64609;47.052;15.462;2023-05-13T07:06:27;15.80;74.20
75931;DHT22;64609;47.052;15.462;2023-05-13T07:08:53;15.80;74.10
75931;DHT22;64609;47.052;15.462;2023-05-13T07:11:19;15.80;74.30
75931;DHT22;64609;47.052;15.462;2023-05-13T07:13:44;15.80;74.00
75931;DHT22;64609;47.052;15.462;2023-05-13T07:16:10;15.80;73.80
75931;DHT22;64609;47.052;15.462;2023-05-13T07:18:36;15.80;73.40
75931;DHT22;64609;47.052;15.462;2023-05-13T07:21:01;15.80;73.40
75931;DHT22;64609;47.052;15.462;2023-05-13T07:23:27;15.80;73.70
75931;DHT22;64609;47.052;15.462;2023-05-13T07:25:53;15.90;73.90
75931;DHT22;64609;47.052;15.462;2023-05-13T07:28:18;15.90;73.60
75931;DHT22;64609;47.052;15.462;2023-05-13T07:30:47;15.90;73.20
75931;DHT22;64609;47.052;15.462;2023-05-13T07:33:13;15.90;73.20
75931;DHT22;64609;47.052;15.462;2023-05-13T07:35:39;15.90;73.50
75931;DHT22;64609;47.052;15.462;2023-05-13T07:38:06;15.90;73.00
75931;DHT22;64609;47.052;15.462;2023-05-13T07:40:33;15.90;72.60
75931;DHT22;64609;47.052;15.462;2023-05-13T07:42:58;15.80;72.70
75931;DHT22;64609;47.052;15.462;2023-05-13T07:45:24;15.90;72.70
75931;DHT22;64609;47.052;15.462;2023-05-13T07:47:50;15.80;72.50
75931;DHT22;64609;47.052;15.462;2023-05-13T07:50:15;15.80;72.40
75931;DHT22;64609;47.052;15.462;2023-05-13T07:52:41;15.80;72.40
75931;DHT22;64609;47.052;15.462;2023-05-13T07:55:08;15.80;72.40
75931;DHT22;64609;47.052;15.462;2023-05-13T07:57:35;15.90;72.70
75931;DHT22;64609;47.052;15.462;2023-05-13T08:00:01;15.90;72.70
75931;DHT22;64609;47.052;15.462;2023-05-13T08:02:26;15.90;72.80
75931;DHT22;64609;47.052;15.462;2023-05-13T08:04:52;16.00;72.50
75931;DHT22;64609;47.052;15.462;2023-05-13T08:07:18;16.00;72.40
75931;DHT22;64609;47.052;15.462;2023-05-13T08:09:44;16.00;72.10
75931;DHT22;64609;47.052;15.462;2023-05-13T08:12:09;15.70;72.40
75931;DHT22;64609;47.052;15.462;2023-05-13T08:14:35;15.80;73.00
75931;DHT22;64609;47.052;15.462;2023-05-13T08:17:03;15.80;72.60
75931;DHT22;64609;47.052;15.462;2023-05-13T08:19:29;15.80;72.90
75931;DHT22;64609;47.052;15.462;2023-05-13T08:21:55;15.90;73.10
75931;DHT22;64609;47.052;15.462;2023-05-13T08:24:20;16.00;72.80
75931;DHT22;64609;47.052;15.462;2023-05-13T08:26:46;15.90;72.10
75931;DHT22;64609;47.052;15.462;2023-05-13T08:29:12;15.90;72.60
75931;DHT22;64609;47.052;15.462;2023-05-13T08:31:40;15.90;72.30
75931;DHT22;64609;47.052;15.462;2023-05-13T08:34:06;15.90;72.60
75931;DHT22;64609;47.052;15.462;2023-05-13T08:36:32;15.90;72.00
75931;DHT22;64609;47.052;15.462;2023-05-13T08:38:58;15.80;72.10
75931;DHT22;64609;47.052;15.462;2023-05-13T08:41:24;15.90;72.60
75931;DHT22;64609;47.052;15.462;2023-05-13T08:43:51;16.00;72.60
75931;DHT22;64609;47.052;15.462;2023-05-13T08:46:18;16.10;73.90
75931;DHT22;64609;47.052;15.462;2023-05-13T08:48:49;16.20;71.80
75931;DHT22;64609;47.052;15.462;2023-05-13T08:51:15;16.10;71.60
75931;DHT22;64609;47.052;15.462;2023-05-13T08:53:42;16.20;71.80
75931;DHT22;64609;47.052;15.462;2023-05-13T08:56:09;16.20;71.80
75931;DHT22;64609;47.052;15.462;2023-05-13T08:58:34;16.30;71.60
75931;DHT22;64609;47.052;15.462;2023-05-13T09:01:03;16.30;71.80
75931;DHT22;64609;47.052;15.462;2023-05-13T09:03:30;16.20;71.20
75931;DHT22;64609;47.052;15.462;2023-05-13T09:05:58;16.20;71.30
75931;DHT22;64609;47.052;15.462;2023-05-13T09:08:24;16.30;71.50
75931;DHT22;64609;47.052;15.462;2023-05-13T09:10:50;16.30;71.40
75931;DHT22;64609;47.052;15.462;2023-05-13T09:13:16;16.30;72.00
75931;DHT22;64609;47.052;15.462;2023-05-13T09:15:43;16.30;71.50
75931;DHT22;64609;47.052;15.462;2023-05-13T09:18:09;16.20;70.90
75931;DHT22;64609;47.052;15.462;2023-05-13T09:20:35;16.20;71.30
75931;DHT22;64609;47.052;15.462;2023-05-13T09:23:02;15.90;70.90
75931;DHT22;64609;47.052;15.462;2023-05-13T09:25:29;15.90;71.80
75931;DHT22;64609;47.052;15.462;2023-05-13T09:27:59;15.90;72.00
75931;DHT22;64609;47.052;15.462;2023-05-13T09:30:26;15.80;71.80
75931;DHT22;64609;47.052;15.462;2023-05-13T09:33:09;15.90;71.80
75931;DHT22;64609;47.052;15.462;2023-05-13T09:35:37;15.90;72.30
75931;DHT22;64609;47.052;15.462;2023-05-13T09:40:39;16.00;71.20
75931;DHT22;64609;47.052;15.462;2023-05-13T09:43:05;15.90;71.50
75931;DHT22;64609;47.052;15.462;2023-05-13T09:45:33;16.00;71.50
75931;DHT22;64609;47.052;15.462;2023-05-13T09:47:58;16.10;71.90
75931;DHT22;64609;47.052;15.462;2023-05-13T09:50:24;16.20;72.10
75931;DHT22;64609;47.052;15.462;2023-05-13T09:52:49;16.30;71.90
75931;DHT22;64609;47.052;15.462;2023-05-13T09:55:15;16.30;71.40
75931;DHT22;64609;47.052;15.462;2023-05-13T09:57:41;16.30;71.40
75931;DHT22;64609;47.052;15.462;2023-05-13T10:00:07;16.40;71.80
75931;DHT22;64609;47.052;15.462;2023-05-13T10:02:34;16.40;71.80
75931;DHT22;64609;47.052;15.462;2023-05-13T10:05:00;16.50;71.90
75931;DHT22;64609;47.052;15.462;2023-05-13T10:07:27;16.50;72.00
75931;DHT22;64609;47.052;15.462;2023-05-13T10:09:56;16.50;71.30
75931;DHT22;64609;47.052;15.462;2023-05-13T10:12:24;16.50;71.00
75931;DHT22;64609;47.052;15.462;2023-05-13T10:14:52;16.40;70.20
75931;DHT22;64609;47.052;15.462;2023-05-13T10:17:20;16.30;70.40
75931;DHT22;64609;47.052;15.462;2023-05-13T10:19:51;16.30;71.00
75931;DHT22;64609;47.052;15.462;2023-05-13T10:22:37;16.40;71.40
75931;DHT22;64609;47.052;15.462;2023-05-13T10:25:03;16.40;70.90
75931;DHT22;64609;47.052;15.462;2023-05-13T10:27:31;16.40;70.60
75931;DHT22;64609;47.052;15.462;2023-05-13T10:29:59;16.40;70.60
75931;DHT22;64609;47.052;15.462;2023-05-13T10:32:29;16.50;70.80
75931;DHT22;64609;47.052;15.462;2023-05-13T10:42:39;16.20;70.40
75931;DHT22;64609;47.052;15.462;2023-05-13T10:45:08;16.20;71.00
75931;DHT22;64609;47.052;15.462;2023-05-13T10:47:35;16.10;71.90
75931;DHT22;64609;47.052;15.462;2023-05-13T10:50:25;16.10;71.40
75931;DHT22;64609;47.052;15.462;2023-05-13T10:52:55;16.00;72.00
75931;DHT22;64609;47.052;15.462;2023-05-13T10:55:21;16.00;72.30
75931;DHT22;64609;47.052;15.462;2023-05-13T11:00:32;16.00;72.80
75931;DHT22;64609;47.052;15.462;2023-05-13T11:05:47;16.10;73.00
75931;DHT22;64609;47.052;15.462;2023-05-13T11:08:35;16.20;73.20
75931;DHT22;64609;47.052;15.462;2023-05-13T11:11:02;16.20;73.30
75931;DHT22;64609;47.052;15.462;2023-05-13T11:13:35;16.20;73.20
75931;DHT22;64609;47.052;15.462;2023-05-13T11:16:05;16.30;72.70
75931;DHT22;64609;47.052;15.462;2023-05-13T11:18:33;16.30;73.00
75931;DHT22;64609;47.052;15.462;2023-05-13T11:21:03;16.20;72.40
75931;DHT22;64609;47.052;15.462;2023-05-13T11:23:55;16.20;73.00
75931;DHT22;64609;47.052;15.462;2023-05-13T11:26:17;16.30;73.30
75931;DHT22;64609;47.052;15.462;2023-05-13T11:29:04;16.30;72.90
75931;DHT22;64609;47.052;15.462;2023-05-13T11:31:49;16.30;72.60
75931;DHT22;64609;47.052;15.462;2023-05-13T11:34:21;16.20;72.90
75931;DHT22;64609;47.052;15.462;2023-05-13T11:37:07;16.20;72.80
75931;DHT22;64609;47.052;15.462;2023-05-13T11:39:34;16.30;72.80
75931;DHT22;64609;47.052;15.462;2023-05-13T11:42:04;16.30;72.70
75931;DHT22;64609;47.052;15.462;2023-05-13T11:44:32;16.40;72.80
75931;DHT22;64609;47.052;15.462;2023-05-13T11:47:03;16.40;72.70
75931;DHT22;64609;47.052;15.462;2023-05-13T11:49:45;16.40;72.90
75931;DHT22;64609;47.052;15.462;2023-05-13T11:52:13;16.50;72.90
75931;DHT22;64609;47.052;15.462;2023-05-13T11:54:53;16.40;72.80
75931;DHT22;64609;47.052;15.462;2023-05-13T11:57:26;16.40;72.90
75931;DHT22;64609;47.052;15.462;2023-05-13T12:00:07;16.40;72.60
75931;DHT22;64609;47.052;15.462;2023-05-13T12:02:35;16.40;72.60
75931;DHT22;64609;47.052;15.462;2023-05-13T12:05:03;16.40;72.50
75931;DHT22;64609;47.052;15.462;2023-05-13T12:07:30;16.40;72.60
75931;DHT22;64609;47.052;15.462;2023-05-13T12:09:58;16.30;72.20
75931;DHT22;64609;47.052;15.462;2023-05-13T12:12:25;16.20;72.50
75931;DHT22;64609;47.052;15.462;2023-05-13T12:14:52;16.20;72.70
75931;DHT22;64609;47.052;15.462;2023-05-13T12:17:19;16.20;72.50
75931;DHT22;64609;47.052;15.462;2023-05-13T12:22:30;16.20;72.70
75931;DHT22;64609;47.052;15.462;2023-05-13T12:24:56;16.20;72.80
75931;DHT22;64609;47.052;15.462;2023-05-13T12:27:26;16.20;72.90
75931;DHT22;64609;47.052;15.462;2023-05-13T12:29:54;16.20;73.00
75931;DHT22;64609;47.052;15.462;2023-05-13T12:32:20;16.20;73.00
75931;DHT22;64609;47.052;15.462;2023-05-13T12:34:49;16.20;73.30
75931;DHT22;64609;47.052;15.462;2023-05-13T12:37:16;16.20;73.40
75931;DHT22;64609;47.052;15.462;2023-05-13T12:39:42;16.20;73.60
75931;DHT22;64609;47.052;15.462;2023-05-13T12:42:15;16.20;73.20
75931;DHT22;64609;47.052;15.462;2023-05-13T12:44:43;16.20;73.00
75931;DHT22;64609;47.052;15.462;2023-05-13T12:47:10;16.30;73.10
75931;DHT22;64609;47.052;15.462;2023-05-13T12:49:58;16.20;72.60
75931;DHT22;64609;47.052;15.462;2023-05-13T12:52:24;16.10;72.70
75931;DHT22;64609;47.052;15.462;2023-05-13T12:54:49;16.20;72.90
75931;DHT22;64609;47.052;15.462;2023-05-13T12:57:16;16.20;72.60
75931;DHT22;64609;47.052;15.462;2023-05-13T12:59:43;16.30;73.00
75931;DHT22;64609;47.052;15.462;2023-05-13T13:02:10;16.40;73.20
75931;DHT22;64609;47.052;15.462;2023-05-13T13:04:36;16.40;73.20
75931;DHT22;64609;47.052;15.462;2023-05-13T13:07:02;16.50;73.40
75931;DHT22;64609;47.052;15.462;2023-05-13T13:09:27;16.50;73.10
75931;DHT22;64609;47.052;15.462;2023-05-13T13:11:53;16.30;72.40
75931;DHT22;64609;47.052;15.462;2023-05-13T13:14:19;16.30;72.80
75931;DHT22;64609;47.052;15.462;2023-05-13T13:16:45;16.20;72.90
75931;DHT22;64609;47.052;15.462;2023-05-13T13:19:11;16.20;73.30
75931;DHT22;64609;47.052;15.462;2023-05-13T13:21:36;16.20;73.40
75931;DHT22;64609;47.052;15.462;2023-05-13T13:24:02;16.20;73.40
75931;DHT22;64609;47.052;15.462;2023-05-13T13:26:28;16.20;73.40
75931;DHT22;64609;47.052;15.462;2023-05-13T13:28:53;16.20;73.20
75931;DHT22;64609;47.052;15.462;2023-05-13T13:31:19;16.30;73.30
75931;DHT22;64609;47.052;15.462;2023-05-13T13:33:45;16.30;73.50
75931;DHT22;64609;47.052;15.462;2023-05-13T13:36:10;16.30;73.40
75931;DHT22;64609;47.052;15.462;2023-05-13T13:38:36;16.30;73.00
75931;DHT22;64609;47.052;15.462;2023-05-13T13:41:02;16.20;73.30
75931;DHT22;64609;47.052;15.462;2023-05-13T13:43:27;16.20;73.70
75931;DHT22;64609;47.052;15.462;2023-05-13T13:45:53;16.30;73.80
75931;DHT22;64609;47.052;15.462;2023-05-13T13:48:20;16.30;73.90
75931;DHT22;64609;47.052;15.462;2023-05-13T13:50:45;16.30;73.70
75931;DHT22;64609;47.052;15.462;2023-05-13T13:53:11;16.40;73.50
75931;DHT22;64609;47.052;15.462;2023-05-13T13:55:37;16.40;73.50
75931;DHT22;64609;47.052;15.462;2023-05-13T13:58:02;16.50;73.20
75931;DHT22;64609;47.052;15.462;2023-05-13T14:00:28;16.50;73.00
75931;DHT22;64609;47.052;15.462;2023-05-13T14:02:54;16.40;73.00
75931;DHT22;64609;47.052;15.462;2023-05-13T14:05:20;16.50;72.90
75931;DHT22;64609;47.052;15.462;2023-05-13T14:07:46;16.50;72.90
75931;DHT22;64609;47.052;15.462;2023-05-13T14:10:14;16.50;72.90
75931;DHT22;64609;47.052;15.462;2023-05-13T14:12:39;16.50;72.70
75931;DHT22;64609;47.052;15.462;2023-05-13T14:15:05;16.60;72.70
75931;DHT22;64609;47.052;15.462;2023-05-13T14:17:32;16.70;72.70
75931;DHT22;64609;47.052;15.462;2023-05-13T14:19:57;16.70;72.60
75931;DHT22;64609;47.052;15.462;2023-05-13T14:22:23;16.80;72.80
75931;DHT22;64609;47.052;15.462;2023-05-13T14:24:50;16.90;72.40
75931;DHT22;64609;47.052;15.462;2023-05-13T14:27:16;16.90;71.70
75931;DHT22;64609;47.052;15.462;2023-05-13T14:29:44;17.00;71.90
75931;DHT22;64609;47.052;15.462;2023-05-13T14:32:09;17.00;71.40
75931;DHT22;64609;47.052;15.462;2023-05-13T14:34:35;16.90;71.30
75931;DHT22;64609;47.052;15.462;2023-05-13T14:37:00;16.90;71.10
75931;DHT22;64609;47.052;15.462;2023-05-13T14:39:26;16.70;70.90
75931;DHT22;64609;47.052;15.462;2023-05-13T14:41:52;16.70;70.80
75931;DHT22;64609;47.052;15.462;2023-05-13T14:44:17;16.50;71.50
75931;DHT22;64609;47.052;15.462;2023-05-13T14:46:43;16.50;72.00
75931;DHT22;64609;47.052;15.462;2023-05-13T14:49:09;16.50;72.20
75931;DHT22;64609;47.052;15.462;2023-05-13T14:51:34;16.50;72.20
75931;DHT22;64609;47.052;15.462;2023-05-13T14:54:00;16.50;71.80
75931;DHT22;64609;47.052;15.462;2023-05-13T14:56:26;16.50;71.90
75931;DHT22;64609;47.052;15.462;2023-05-13T14:58:52;16.60;71.80
75931;DHT22;64609;47.052;15.462;2023-05-13T15:01:18;16.70;71.70
75931;DHT22;64609;47.052;15.462;2023-05-13T15:03:43;16.60;71.20
75931;DHT22;64609;47.052;15.462;2023-05-13T15:06:09;16.60;71.00
75931;DHT22;64609;47.052;15.462;2023-05-13T15:08:36;16.50;71.50
75931;DHT22;64609;47.052;15.462;2023-05-13T15:11:02;16.60;71.50
75931;DHT22;64609;47.052;15.462;2023-05-13T15:13:28;16.50;71.70
75931;DHT22;64609;47.052;15.462;2023-05-13T15:16:00;16.60;72.00
75931;DHT22;64609;47.052;15.462;2023-05-13T15:18:26;16.60;71.90
75931;DHT22;64609;47.052;15.462;2023-05-13T15:20:51;16.60;72.10
75931;DHT22;64609;47.052;15.462;2023-05-13T15:23:17;16.70;72.20
75931;DHT22;64609;47.052;15.462;2023-05-13T15:25:43;16.70;72.00
75931;DHT22;64609;47.052;15.462;2023-05-13T15:28:08;16.70;71.60
75931;DHT22;64609;47.052;15.462;2023-05-13T15:30:34;16.60;71.60
75931;DHT22;64609;47.052;15.462;2023-05-13T15:33:01;16.60;72.00
75931;DHT22;64609;47.052;15.462;2023-05-13T15:35:27;16.60;71.80